PST,Max TemperatureF,Mean TemperatureF,Min TemperatureF,Max Dew PointF,MeanDew PointF,Min DewpointF,Max Humidity, Mean Humidity, Min Humidity, Max Sea Level PressureIn, Mean Sea Level PressureIn, Min Sea Level PressureIn, Max VisibilityMiles, Mean VisibilityMiles, Min VisibilityMiles, Max Wind SpeedMPH, Mean Wind SpeedMPH, Max Gust SpeedMPH,PrecipitationIn, CloudCover, Events, WindDirDegrees
2013-11-1,62,47,32,40,35,29,89,64,39,30.41,30.19,29.95,10,10,10,10,4,14,T,2,,152
2013-11-2,60,51,41,46,37,28,100,69,38,29.94,29.75,29.56,10,9,5,33,14,44,0.31,5,Rain,223
2013-11-3,53,44,34,33,29,22,89,60,30,30.12,29.97,29.81,10,10,10,16,7,22,0.00,4,,272
2013-11-4,49,38,27,27,23,17,78,54,29,30.19,30.14,30.05,10,10,10,9,4,13,0.00,2,,293
2013-11-5,39,36,33,36,33,25,100,82,64,30.26,30.16,30.13,10,6,2,8,3,9,0.08,8,Snow,45
2013-11-6,43,40,36,36,34,33,92,83,73,30.41,30.34,30.24,10,10,7,12,4,14,0.04,8,Rain,6
2013-11-7,45,42,38,41,38,36,100,88,76,30.23,29.95,29.81,10,6,4,12,7,16,0.13,6,Rain,228
2013-11-8,52,42,32,39,35,30,96,75,54,30.24,30.08,29.94,10,10,10,24,9,29,0.00,1,,236
2013-11-9,47,39,31,40,35,29,100,86,71,30.24,30.18,30.14,10,10,9,10,7,13,0.00,4,,354
2013-11-10,51,46,40,41,39,38,93,81,68,30.43,30.22,30.14,10,10,10,13,7,16,0.00,8,,356
2013-11-11,58,48,37,41,38,36,92,74,55,30.51,30.35,30.28,10,10,10,16,8,20,0.00,2,,8
2013-11-12,51,44,36,43,39,34,100,86,71,30.41,30.32,30.23,10,6,0,10,4,13,0.01,6,Fog-Rain,113
2013-11-13,48,41,34,41,37,34,100,88,76,30.41,30.35,30.25,10,3,0,9,2,12,0.00,4,Fog,191
2013-11-14,48,39,29,39,34,28,100,88,76,30.26,30.08,29.94,10,4,0,12,3,15,0.00,5,Fog,27
2013-11-15,46,37,28,34,31,28,100,77,53,29.95,29.69,29.28,10,6,0,21,8,28,0.00,5,Fog,186
2013-11-16,52,45,37,34,28,23,82,59,35,29.82,29.48,29.24,10,10,10,25,14,32,0.00,1,,250
2013-11-17,53,44,34,37,33,26,82,66,50,29.99,29.84,29.70,10,10,10,24,11,33,0.00,5,,210
2013-11-18,53,48,43,43,40,37,83,71,59,30.01,29.83,29.64,10,10,10,23,10,29,0.02,4,Rain,168
2013-11-19,60,48,36,44,33,20,89,57,24,29.93,29.68,29.56,10,10,10,26,13,31,0.00,1,,253
2013-11-20,40,27,14,19,4,-6,73,44,15,30.52,30.30,29.94,10,10,10,6,11,7,0.00,0,,5
2013-11-21,38,24,10,14,8,5,76,51,25,30.76,30.69,30.53,10,10,10,9,4,14,0.00,0,,351
2013-11-22,40,26,12,17,12,9,88,61,33,30.85,30.78,30.71,10,10,10,10,6,12,0.00,0,,357
2013-11-23,40,27,13,20,16,10,92,66,40,30.70,30.57,30.42,10,10,9,10,4,13,0.00,0,,353
2013-11-24,38,26,13,22,17,10,92,72,52,30.45,30.40,30.37,10,10,8,6,2,7,0.00,0,,348
2013-11-25,39,28,17,25,20,14,92,73,54,30.53,30.48,30.45,10,10,8,7,2,9,0.00,0,,14
2013-11-26,39,29,18,27,22,16,92,78,64,30.43,30.34,30.27,10,9,6,8,3,8,0.00,0,,21
2013-11-27,41,30,19,30,23,17,92,78,64,30.27,30.23,30.17,10,8,5,9,5,9,0.00,0,,342
2013-11-28,35,26,17,28,25,15,100,85,70,30.29,30.24,30.19,10,4,0,9,4,10,0.00,4,Fog,42
2013-11-29,31,26,21,29,25,19,100,94,88,30.35,30.30,30.25,4,2,0,7,1,8,0.01,8,Fog-Rain-Snow,349
2013-11-30,32,31,30,31,29,28,100,93,85,30.37,30.30,30.17,4,2,0,7,2,9,0.00,8,Fog,147